Time;durP1;ratioP1;P1;durP2;ratioP2;P2;SDS_P1;SDS_P2;PMS_P1;PMS_P2;Temp;Humidity;BMP_temperature;BMP_pressure;BME280_temperature;BME280_humidity;BME280_pressure;Samples;Min_cycle;Max_cycle;Signal;HPM_P1;HPM_P2
2023/10/19 00:02:31;;;;;;;2.70;2.50;;;;;;;;;;6177219;28;20030;-83
2023/10/19 00:05:32;;;;;;;3.22;2.65;;;;;;;;;;6171584;28;20080;-85
2023/10/19 00:08:41;;;;;;;3.75;2.53;;;;;;;;;;6176638;28;20395;-83
2023/10/19 00:11:42;;;;;;;2.65;2.45;;;;;;;;;;6174994;28;20035;-83
2023/10/19 00:14:42;;;;;;;3.25;2.47;;;;;;;;;;6176522;28;20037;-83
2023/10/19 00:17:44;;;;;;;3.90;2.87;;;;;;;;;;6173167;28;20035;-84
2023/10/19 00:23:51;;;;;;;2.97;2.63;;;;;;;;;;6176884;28;20025;-84
2023/10/19 00:26:54;;;;;;;2.67;2.38;;;;;;;;;;6174194;28;20034;-83
2023/10/19 00:30:05;;;;;;;3.38;2.65;;;;;;;;;;6176656;28;20454;-83
2023/10/19 00:33:15;;;;;;;3.72;2.80;;;;;;;;;;6165675;28;20057;-83
2023/10/19 00:36:16;;;;;;;3.40;2.58;;;;;;;;;;6173820;28;20105;-83
2023/10/19 00:39:21;;;;;;;3.27;2.43;;;;;;;;;;6170899;28;20161;-83
2023/10/19 00:42:29;;;;;;;3.60;2.75;;;;;;;;;;6172699;28;20054;-83
2023/10/19 00:45:32;;;;;;;4.80;2.95;;;;;;;;;;6171586;28;20118;-83
2023/10/19 00:48:34;;;;;;;3.10;2.65;;;;;;;;;;6173975;28;20053;-83
2023/10/19 00:51:55;;;;;;;2.60;2.35;;;;;;;;;;6171813;28;20034;-82
2023/10/19 00:54:58;;;;;;;3.72;2.72;;;;;;;;;;6174040;28;20031;-83
2023/10/19 00:58:03;;;;;;;2.80;2.53;;;;;;;;;;6174132;28;20030;-83
2023/10/19 01:01:06;;;;;;;2.65;2.40;;;;;;;;;;6171438;28;20644;-83
2023/10/19 01:04:07;;;;;;;3.28;2.80;;;;;;;;;;6168541;28;20447;-83
2023/10/19 01:07:12;;;;;;;2.90;2.40;;;;;;;;;;6164460;28;20042;-85
2023/10/19 01:10:19;;;;;;;3.55;3.00;;;;;;;;;;6173781;28;20019;-83
2023/10/19 01:13:37;;;;;;;4.05;2.97;;;;;;;;;;6174036;28;20065;-83
2023/10/19 01:16:38;;;;;;;3.75;2.47;;;;;;;;;;6177417;28;20068;-82
2023/10/19 01:19:40;;;;;;;3.33;3.00;;;;;;;;;;6171138;28;20091;-83
2023/10/19 01:26:12;;;;;;;3.35;2.83;;;;;;;;;;6171539;28;20031;-79
2023/10/19 01:29:17;;;;;;;3.30;2.88;;;;;;;;;;6175370;28;20058;-79
2023/10/19 01:32:17;;;;;;;3.75;3.25;;;;;;;;;;6172155;28;20067;-80
2023/10/19 01:35:18;;;;;;;4.03;3.27;;;;;;;;;;6172875;28;20030;-79
2023/10/19 01:38:18;;;;;;;3.17;2.67;;;;;;;;;;6172219;28;20054;-78
2023/10/19 01:41:18;;;;;;;4.20;3.07;;;;;;;;;;6176490;28;20038;-78
2023/10/19 01:44:20;;;;;;;4.10;2.57;;;;;;;;;;6175022;28;20375;-78
2023/10/19 01:47:22;;;;;;;3.50;2.83;;;;;;;;;;6179091;28;20478;-81
2023/10/19 01:50:22;;;;;;;;;;;;;;;;;;6165739;28;20019;-79
2023/10/19 01:53:25;;;;;;;3.03;2.53;;;;;;;;;;6171828;28;19922;-82
2023/10/19 01:56:25;;;;;;;3.05;2.72;;;;;;;;;;6173352;28;20030;-80
2023/10/19 01:59:27;;;;;;;2.70;2.43;;;;;;;;;;6173279;28;20126;-83
2023/10/19 02:02:28;;;;;;;4.18;2.88;;;;;;;;;;6175804;28;20084;-79
2023/10/19 02:05:39;;;;;;;3.88;3.35;;;;;;;;;;6171614;28;20542;-77
2023/10/19 02:08:39;;;;;;;3.53;3.00;;;;;;;;;;6152522;28;20168;-79
2023/10/19 02:11:41;;;;;;;3.30;2.87;;;;;;;;;;6173930;28;20027;-78
2023/10/19 02:14:43;;;;;;;3.50;3.00;;;;;;;;;;6174366;28;20754;-78
2023/10/19 02:17:44;;;;;;;3.60;3.30;;;;;;;;;;6173506;28;20049;-79
2023/10/19 02:20:48;;;;;;;3.33;3.03;;;;;;;;;;6169002;28;20419;-78
2023/10/19 02:23:50;;;;;;;4.05;3.05;;;;;;;;;;6176506;28;20035;-78
2023/10/19 02:26:54;;;;;;;3.75;2.95;;;;;;;;;;6174695;28;20045;-78
2023/10/19 02:29:54;;;;;;;3.45;3.15;;;;;;;;;;6176540;28;20031;-78
2023/10/19 02:32:54;;;;;;;3.40;2.77;;;;;;;;;;6178482;28;20069;-78
2023/10/19 02:35:57;;;;;;;3.50;3.10;;;;;;;;;;6173650;28;20054;-83
2023/10/19 02:39:00;;;;;;;4.45;3.58;;;;;;;;;;6180671;28;20085;-83
2023/10/19 02:42:02;;;;;;;5.10;3.80;;;;;;;;;;6176523;28;20030;-83
2023/10/19 02:45:04;;;;;;;3.53;3.22;;;;;;;;;;6175037;28;20031;-83
2023/10/19 02:48:05;;;;;;;5.40;3.53;;;;;;;;;;6174882;28;20399;-83
2023/10/19 02:51:10;;;;;;;3.97;3.43;;;;;;;;;;6174189;28;20031;-83
2023/10/19 02:54:24;;;;;;;4.50;3.70;;;;;;;;;;6177390;28;20035;-83
2023/10/19 02:57:24;;;;;;;4.07;3.67;;;;;;;;;;6177245;28;20119;-83
2023/10/19 03:00:32;;;;;;;3.77;3.27;;;;;;;;;;6158230;28;20364;-84
2023/10/19 03:03:32;;;;;;;5.95;3.72;;;;;;;;;;6173040;28;20030;-83
2023/10/19 03:06:33;;;;;;;4.50;3.63;;;;;;;;;;6176482;28;20357;-83
2023/10/19 03:09:36;;;;;;;4.70;3.50;;;;;;;;;;6173581;28;20498;-83
2023/10/19 03:12:37;;;;;;;3.58;3.28;;;;;;;;;;6176106;28;20450;-83
2023/10/19 03:15:42;;;;;;;3.63;3.23;;;;;;;;;;6174356;28;20031;-83
2023/10/19 03:18:42;;;;;;;3.72;3.38;;;;;;;;;;6173044;28;20022;-83
2023/10/19 03:21:43;;;;;;;4.63;3.77;;;;;;;;;;6175391;28;20144;-84
2023/10/19 03:24:44;;;;;;;4.00;3.20;;;;;;;;;;6173748;28;20084;-83
2023/10/19 03:27:44;;;;;;;5.23;3.10;;;;;;;;;;6177840;28;20105;-84
2023/10/19 03:30:46;;;;;;;4.03;3.63;;;;;;;;;;6175070;28;20076;-83
2023/10/19 03:33:59;;;;;;;3.67;3.33;;;;;;;;;;6173987;28;20589;-83
2023/10/19 03:37:05;;;;;;;5.28;3.90;;;;;;;;;;6176689;28;20101;-83
2023/10/19 03:40:07;;;;;;;5.15;3.83;;;;;;;;;;6174659;28;20076;-84
2023/10/19 03:43:17;;;;;;;3.97;3.55;;;;;;;;;;6174287;28;20025;-84
2023/10/19 03:46:31;;;;;;;4.10;3.70;;;;;;;;;;6174474;28;20023;-79
2023/10/19 03:49:36;;;;;;;4.20;3.47;;;;;;;;;;6198379;28;20496;-77
2023/10/19 03:52:39;;;;;;;4.35;3.60;;;;;;;;;;6187589;28;20023;-78
2023/10/19 03:55:43;;;;;;;4.40;3.72;;;;;;;;;;6205777;28;20016;-78
2023/10/19 03:58:47;;;;;;;4.40;3.40;;;;;;;;;;6233464;28;20034;-80
2023/10/19 04:01:47;;;;;;;5.03;3.58;;;;;;;;;;6173243;28;20117;-78
2023/10/19 04:04:48;;;;;;;4.57;3.45;;;;;;;;;;6182485;28;20018;-78
2023/10/19 04:07:56;;;;;;;3.73;3.40;;;;;;;;;;6172115;28;20361;-77
2023/10/19 04:11:48;;;;;;;4.03;3.60;;;;;;;;;;6173282;28;20163;-78
2023/10/19 04:14:18;;;;;;;5.38;3.47;;;;;;;;;;6178481;28;20041;-78
2023/10/19 04:17:21;;;;;;;4.47;3.72;;;;;;;;;;6195699;28;20447;-81
2023/10/19 04:20:42;;;;;;;4.93;3.95;;;;;;;;;;6195164;28;20134;-78
2023/10/19 04:23:42;;;;;;;3.55;3.20;;;;;;;;;;6169027;28;20052;-78
2023/10/19 04:26:43;;;;;;;4.60;3.43;;;;;;;;;;6195822;28;20034;-80
2023/10/19 04:29:45;;;;;;;5.03;3.10;;;;;;;;;;6179554;28;20023;-78
2023/10/19 04:32:50;;;;;;;4.20;3.35;;;;;;;;;;6176701;28;20018;-78
2023/10/19 04:35:55;;;;;;;4.07;3.67;;;;;;;;;;6200487;28;20029;-77
2023/10/19 04:38:56;;;;;;;4.55;3.58;;;;;;;;;;6195380;28;20062;-77
2023/10/19 04:41:56;;;;;;;4.10;3.57;;;;;;;;;;6176598;28;20038;-78
2023/10/19 04:44:56;;;;;;;4.97;3.67;;;;;;;;;;6174844;28;20031;-78
2023/10/19 04:47:57;;;;;;;4.23;3.47;;;;;;;;;;6172022;28;20144;-78
2023/10/19 04:50:57;;;;;;;4.15;3.72;;;;;;;;;;6167995;28;20105;-78
2023/10/19 04:53:57;;;;;;;4.43;3.63;;;;;;;;;;6171942;28;20038;-78
2023/10/19 04:57:00;;;;;;;3.83;3.43;;;;;;;;;;6174369;28;20038;-84
2023/10/19 05:00:00;;;;;;;6.05;3.97;;;;;;;;;;6173522;28;20042;-83
2023/10/19 05:03:01;;;;;;;4.30;3.73;;;;;;;;;;6174780;28;20489;-84
2023/10/19 05:06:01;;;;;;;5.07;3.95;;;;;;;;;;6171940;28;20018;-83
2023/10/19 05:09:03;;;;;;;4.87;3.83;;;;;;;;;;6176367;28;20035;-83
2023/10/19 05:12:03;;;;;;;4.18;3.47;;;;;;;;;;6161143;28;20520;-84
2023/10/19 05:15:05;;;;;;;4.83;3.87;;;;;;;;;;6169796;28;20026;-84
2023/10/19 05:18:06;;;;;;;4.32;3.75;;;;;;;;;;6178556;28;20364;-84
2023/10/19 05:21:06;;;;;;;4.50;3.57;;;;;;;;;;6181394;28;20034;-84
2023/10/19 05:24:06;;;;;;;5.17;3.97;;;;;;;;;;6172429;28;20127;-84
2023/10/19 05:27:09;;;;;;;6.53;3.73;;;;;;;;;;6175743;28;20062;-84
2023/10/19 05:30:10;;;;;;;4.65;3.67;;;;;;;;;;6168400;28;20334;-83
2023/10/19 05:33:10;;;;;;;4.07;3.67;;;;;;;;;;6172142;28;20031;-84
2023/10/19 05:36:11;;;;;;;4.83;3.97;;;;;;;;;;6176086;28;20026;-84
2023/10/19 05:39:13;;;;;;;4.57;3.58;;;;;;;;;;6176395;28;20365;-84
2023/10/19 05:42:13;;;;;;;4.28;3.78;;;;;;;;;;6176112;28;20023;-84
2023/10/19 05:45:16;;;;;;;4.03;3.60;;;;;;;;;;6171098;28;20049;-84
2023/10/19 05:48:16;;;;;;;4.10;3.75;;;;;;;;;;6173348;28;20018;-84
2023/10/19 05:51:17;;;;;;;4.60;3.90;;;;;;;;;;6156173;28;20077;-84
2023/10/19 05:54:17;;;;;;;4.78;4.00;;;;;;;;;;6176763;28;20110;-83
2023/10/19 05:57:18;;;;;;;4.60;3.87;;;;;;;;;;6173732;28;20035;-84
2023/10/19 06:00:20;;;;;;;4.93;3.90;;;;;;;;;;6173709;28;20168;-83
2023/10/19 06:03:20;;;;;;;4.97;4.30;;;;;;;;;;6174626;28;20027;-83
2023/10/19 06:06:20;;;;;;;4.30;3.57;;;;;;;;;;6168279;28;20037;-84
2023/10/19 06:09:27;;;;;;;4.90;4.33;;;;;;;;;;6176170;28;20062;-83
2023/10/19 06:12:28;;;;;;;4.45;4.05;;;;;;;;;;6176209;28;20027;-83
2023/10/19 06:15:31;;;;;;;4.97;3.80;;;;;;;;;;6171251;28;20486;-84
2023/10/19 06:18:31;;;;;;;4.80;3.78;;;;;;;;;;6171421;28;20035;-84
2023/10/19 06:21:33;;;;;;;4.23;3.83;;;;;;;;;;6175716;28;20026;-83
2023/10/19 06:24:33;;;;;;;5.65;3.80;;;;;;;;;;6174116;28;20269;-84
2023/10/19 06:27:33;;;;;;;5.83;3.70;;;;;;;;;;6171414;28;20423;-83
2023/10/19 06:30:34;;;;;;;4.90;3.97;;;;;;;;;;6168794;28;20037;-84
2023/10/19 06:33:34;;;;;;;4.70;4.13;;;;;;;;;;6174039;28;20489;-83
2023/10/19 06:36:34;;;;;;;4.53;4.13;;;;;;;;;;6174166;28;20413;-83
2023/10/19 06:39:38;;;;;;;4.43;4.03;;;;;;;;;;6173193;28;20047;-84
2023/10/19 06:42:39;;;;;;;4.10;3.70;;;;;;;;;;6174744;28;20022;-83
2023/10/19 06:45:39;;;;;;;4.60;3.80;;;;;;;;;;6173468;28;20034;-83
2023/10/19 06:48:39;;;;;;;4.03;3.70;;;;;;;;;;6167696;28;20369;-83
2023/10/19 06:51:39;;;;;;;4.80;3.83;;;;;;;;;;6173253;28;20094;-83
2023/10/19 06:54:40;;;;;;;4.50;4.10;;;;;;;;;;6171592;28;20080;-83
2023/10/19 06:57:43;;;;;;;4.65;3.90;;;;;;;;;;6169310;28;20019;-83
2023/10/19 07:00:43;;;;;;;5.40;4.20;;;;;;;;;;6175889;28;20053;-84
2023/10/19 07:03:43;;;;;;;6.40;3.83;;;;;;;;;;6175309;28;20122;-84
2023/10/19 07:06:44;;;;;;;3.93;3.60;;;;;;;;;;6173058;28;20035;-83
2023/10/19 07:09:44;;;;;;;4.97;4.47;;;;;;;;;;6175321;28;20379;-83
2023/10/19 07:12:49;;;;;;;5.60;4.17;;;;;;;;;;6174761;28;20113;-84
2023/10/19 07:15:49;;;;;;;4.20;3.80;;;;;;;;;;6176611;28;20022;-77
2023/10/19 07:18:49;;;;;;;3.90;3.50;;;;;;;;;;6178748;28;20050;-77
2023/10/19 07:21:57;;;;;;;4.27;3.87;;;;;;;;;;6175724;28;20395;-76
2023/10/19 07:24:57;;;;;;;4.82;3.85;;;;;;;;;;6173157;28;20129;-75
2023/10/19 07:27:59;;;;;;;4.63;4.10;;;;;;;;;;6171964;28;20039;-76
2023/10/19 07:30:59;;;;;;;5.40;4.70;;;;;;;;;;6179974;28;20023;-77
2023/10/19 07:34:00;;;;;;;5.10;4.27;;;;;;;;;;6186063;28;20022;-75
2023/10/19 07:37:01;;;;;;;4.43;3.97;;;;;;;;;;6180593;28;20022;-77
2023/10/19 07:40:01;;;;;;;5.50;4.33;;;;;;;;;;6175784;28;20054;-75
2023/10/19 07:43:03;;;;;;;4.67;3.93;;;;;;;;;;6185258;28;20054;-76
2023/10/19 07:46:03;;;;;;;5.18;4.70;;;;;;;;;;6197902;28;20036;-76
2023/10/19 07:49:05;;;;;;;5.87;4.50;;;;;;;;;;6195346;28;20038;-81
2023/10/19 07:52:08;;;;;;;5.10;4.55;;;;;;;;;;6188896;28;20026;-79
2023/10/19 07:55:10;;;;;;;5.57;4.57;;;;;;;;;;6190887;28;20018;-79
2023/10/19 07:58:11;;;;;;;5.90;5.00;;;;;;;;;;6167940;28;20068;-79
2023/10/19 08:01:12;;;;;;;5.55;4.28;;;;;;;;;;6193656;28;20383;-79
2023/10/19 08:04:12;;;;;;;5.90;4.60;;;;;;;;;;6209827;28;20026;-78
2023/10/19 08:07:12;;;;;;;4.80;4.30;;;;;;;;;;6197152;28;20014;-76
2023/10/19 08:10:13;;;;;;;4.60;4.10;;;;;;;;;;6191568;28;20071;-76
2023/10/19 08:13:13;;;;;;;4.88;4.28;;;;;;;;;;6177344;28;20018;-77
2023/10/19 08:16:13;;;;;;;4.90;4.40;;;;;;;;;;6179494;28;20038;-76
2023/10/19 08:19:15;;;;;;;4.80;4.13;;;;;;;;;;6182542;28;20030;-76
2023/10/19 08:22:16;;;;;;;4.82;4.03;;;;;;;;;;6190943;28;20026;-78
2023/10/19 08:25:16;;;;;;;4.97;4.47;;;;;;;;;;6189514;28;20464;-77
2023/10/19 08:28:16;;;;;;;6.93;4.70;;;;;;;;;;6184922;28;20022;-76
2023/10/19 08:31:16;;;;;;;5.33;4.23;;;;;;;;;;6183821;28;20384;-77
2023/10/19 08:34:17;;;;;;;4.87;4.37;;;;;;;;;;6188939;28;20014;-77
2023/10/19 08:37:19;;;;;;;4.47;4.07;;;;;;;;;;6192524;28;20037;-79
2023/10/19 08:40:19;;;;;;;5.80;4.70;;;;;;;;;;6175374;28;20058;-76
2023/10/19 08:43:21;;;;;;;5.43;4.82;;;;;;;;;;6183048;28;20455;-77
2023/10/19 08:46:21;;;;;;;5.13;4.63;;;;;;;;;;6174569;28;20065;-76
2023/10/19 08:49:22;;;;;;;5.17;4.67;;;;;;;;;;6178508;28;20459;-76
2023/10/19 08:52:24;;;;;;;5.05;4.53;;;;;;;;;;6179529;28;20022;-75
2023/10/19 08:55:25;;;;;;;5.40;4.90;;;;;;;;;;6191895;28;20470;-75
2023/10/19 08:58:27;;;;;;;4.60;4.15;;;;;;;;;;6191124;28;20075;-76
2023/10/19 09:01:27;;;;;;;4.68;4.28;;;;;;;;;;6175897;28;20034;-75
2023/10/19 09:04:28;;;;;;;5.43;4.75;;;;;;;;;;6179530;28;20080;-75
2023/10/19 09:07:30;;;;;;;4.95;4.55;;;;;;;;;;6187056;28;20121;-75
2023/10/19 09:10:36;;;;;;;4.63;4.18;;;;;;;;;;6178618;28;20372;-75
2023/10/19 09:13:49;;;;;;;4.82;4.32;;;;;;;;;;6188219;28;20026;-75
2023/10/19 09:16:57;;;;;;;5.28;4.63;;;;;;;;;;6169984;28;20034;-75
2023/10/19 09:19:59;;;;;;;5.60;4.72;;;;;;;;;;6189601;28;20095;-76
2023/10/19 09:23:02;;;;;;;5.72;5.18;;;;;;;;;;6189203;28;20433;-75
2023/10/19 09:26:05;;;;;;;5.85;4.50;;;;;;;;;;6190970;28;20034;-76
2023/10/19 09:29:05;;;;;;;5.40;4.45;;;;;;;;;;6194062;28;20030;-75
2023/10/19 09:32:06;;;;;;;5.63;4.43;;;;;;;;;;6190308;28;20030;-75
2023/10/19 09:35:08;;;;;;;4.20;3.85;;;;;;;;;;6186382;28;20409;-75
2023/10/19 09:38:09;;;;;;;4.68;3.95;;;;;;;;;;6192391;28;20044;-79
2023/10/19 09:41:11;;;;;;;4.63;4.03;;;;;;;;;;6193008;28;20038;-77
2023/10/19 09:44:13;;;;;;;5.10;4.53;;;;;;;;;;6178826;28;20034;-77
2023/10/19 09:47:26;;;;;;;4.60;4.20;;;;;;;;;;6185276;28;20121;-77
2023/10/19 09:50:26;;;;;;;5.45;4.90;;;;;;;;;;6180693;28;20490;-77
2023/10/19 09:53:27;;;;;;;4.60;4.20;;;;;;;;;;5845027;27;10000166;-81
2023/10/19 09:56:33;;;;;;;4.65;4.22;;;;;;;;;;5841856;28;9999930;-77
2023/10/19 09:59:38;;;;;;;7.30;4.35;;;;;;;;;;6185014;28;20039;-77
2023/10/19 10:02:46;;;;;;;4.68;4.10;;;;;;;;;;6190460;28;20022;-77
2023/10/19 10:05:47;;;;;;;5.10;4.30;;;;;;;;;;6186942;28;20038;-77
2023/10/19 10:08:48;;;;;;;4.70;4.30;;;;;;;;;;6195112;28;20033;-77
2023/10/19 10:11:49;;;;;;;5.15;4.07;;;;;;;;;;6193876;28;20039;-77
2023/10/19 10:15:10;;;;;;;4.25;3.83;;;;;;;;;;6176958;28;20471;-77
2023/10/19 10:18:12;;;;;;;4.53;4.13;;;;;;;;;;6172508;28;20168;-78
2023/10/19 10:21:23;;;;;;;5.40;3.83;;;;;;;;;;6181609;28;20045;-78
2023/10/19 10:24:24;;;;;;;4.57;4.10;;;;;;;;;;6178077;28;20042;-78
2023/10/19 10:27:25;;;;;;;4.65;4.25;;;;;;;;;;6180390;28;20034;-77
2023/10/19 10:30:25;;;;;;;4.85;4.15;;;;;;;;;;6183332;28;20035;-77
2023/10/19 10:33:46;;;;;;;4.97;4.33;;;;;;;;;;6189815;28;20042;-79
2023/10/19 10:37:08;;;;;;;4.75;4.20;;;;;;;;;;6179896;28;20339;-78
2023/10/19 10:40:08;;;;;;;4.38;3.97;;;;;;;;;;6169416;28;20055;-77
2023/10/19 10:43:10;;;;;;;4.35;3.90;;;;;;;;;;6171883;28;20379;-77
2023/10/19 10:46:10;;;;;;;4.68;4.20;;;;;;;;;;6175228;28;20528;-77
2023/10/19 10:49:11;;;;;;;4.37;3.97;;;;;;;;;;6180742;28;20030;-77
2023/10/19 10:52:11;;;;;;;4.88;4.40;;;;;;;;;;6181839;28;20027;-77
2023/10/19 10:55:14;;;;;;;4.60;4.20;;;;;;;;;;6182709;28;20095;-77
2023/10/19 10:58:15;;;;;;;4.82;4.40;;;;;;;;;;6198068;28;20022;-78
2023/10/19 11:01:15;;;;;;;4.90;4.35;;;;;;;;;;6181244;28;20027;-77
2023/10/19 11:04:16;;;;;;;5.32;4.07;;;;;;;;;;6196699;28;20034;-78
2023/10/19 11:07:20;;;;;;;4.70;4.30;;;;;;;;;;6198396;28;20022;-78
2023/10/19 11:10:27;;;;;;;6.10;4.63;;;;;;;;;;6187216;28;20471;-77
2023/10/19 11:13:29;;;;;;;5.13;4.63;;;;;;;;;;6177677;28;20022;-77
2023/10/19 11:16:29;;;;;;;6.18;4.85;;;;;;;;;;6195604;28;20471;-78
2023/10/19 11:19:40;;;;;;;5.37;4.43;;;;;;;;;;6182677;28;20030;-77
2023/10/19 11:22:50;;;;;;;4.95;4.50;;;;;;;;;;6198115;28;20193;-78
2023/10/19 11:25:57;;;;;;;5.40;4.57;;;;;;;;;;6198186;28;20023;-78
2023/10/19 11:28:58;;;;;;;5.05;4.55;;;;;;;;;;6196000;28;20034;-77
2023/10/19 11:32:02;;;;;;;4.63;4.20;;;;;;;;;;6187224;28;20030;-78
2023/10/19 11:35:02;;;;;;;4.65;4.25;;;;;;;;;;6195591;28;20030;-77
2023/10/19 11:38:03;;;;;;;5.27;4.77;;;;;;;;;;6188711;28;20133;-77
2023/10/19 11:41:04;;;;;;;4.78;4.10;;;;;;;;;;6197168;28;20034;-78
2023/10/19 11:44:04;;;;;;;4.87;4.13;;;;;;;;;;6196376;28;20035;-78
2023/10/19 11:47:04;;;;;;;4.57;4.17;;;;;;;;;;6197484;28;20550;-78
2023/10/19 11:50:05;;;;;;;4.27;3.87;;;;;;;;;;6195322;28;20912;-78
2023/10/19 11:53:05;;;;;;;4.72;4.28;;;;;;;;;;6180995;28;20551;-79
2023/10/19 11:56:06;;;;;;;4.97;4.00;;;;;;;;;;5835095;28;10000018;-78
2023/10/19 11:59:07;;;;;;;4.57;4.13;;;;;;;;;;6183998;28;20274;-78
2023/10/19 12:02:09;;;;;;;4.93;4.22;;;;;;;;;;6177445;28;20088;-77
2023/10/19 12:05:10;;;;;;;4.43;4.03;;;;;;;;;;6187486;28;20061;-77
2023/10/19 12:08:10;;;;;;;5.18;4.68;;;;;;;;;;6192189;28;20510;-78
2023/10/19 12:11:18;;;;;;;6.82;4.35;;;;;;;;;;6190947;28;20376;-77
2023/10/19 12:14:38;;;;;;;5.50;4.38;;;;;;;;;;6187298;28;20483;-77
2023/10/19 12:17:39;;;;;;;8.90;4.77;;;;;;;;;;6171439;28;20125;-78
2023/10/19 12:20:45;;;;;;;5.27;4.47;;;;;;;;;;6183645;28;20703;-77
2023/10/19 12:23:50;;;;;;;4.82;4.20;;;;;;;;;;6196101;28;20019;-77
2023/10/19 12:26:53;;;;;;;5.00;4.50;;;;;;;;;;6177941;28;20532;-78
2023/10/19 12:30:01;;;;;;;4.57;4.18;;;;;;;;;;6191431;28;20096;-77
2023/10/19 12:33:04;;;;;;;5.82;4.50;;;;;;;;;;6175153;28;20097;-77
2023/10/19 12:36:47;;;;;;;4.90;4.47;;;;;;;;;;6172604;28;20407;-77
2023/10/19 12:39:45;;;;;;;4.47;4.13;;;;;;;;;;6200736;28;20415;-77
2023/10/19 12:42:45;;;;;;;4.90;4.40;;;;;;;;;;6194824;28;20034;-79
2023/10/19 12:45:50;;;;;;;4.80;4.30;;;;;;;;;;6182990;28;20462;-78
2023/10/19 12:48:51;;;;;;;5.18;4.20;;;;;;;;;;6199221;28;20097;-77
2023/10/19 12:51:51;;;;;;;4.68;4.13;;;;;;;;;;6179956;28;20361;-77
2023/10/19 12:54:58;;;;;;;4.50;4.10;;;;;;;;;;6191060;28;20482;-78
2023/10/19 12:58:07;;;;;;;4.15;3.75;;;;;;;;;;6187296;28;20471;-77
2023/10/19 13:01:11;;;;;;;5.38;4.07;;;;;;;;;;6192063;28;20114;-78
2023/10/19 13:04:18;;;;;;;5.25;3.95;;;;;;;;;;6174285;28;20384;-78
2023/10/19 13:07:19;;;;;;;4.15;3.75;;;;;;;;;;6185113;28;20088;-75
2023/10/19 13:10:19;;;;;;;4.53;4.13;;;;;;;;;;6177102;28;20388;-73
2023/10/19 13:13:23;;;;;;;4.60;4.20;;;;;;;;;;6178298;28;20118;-74
2023/10/19 13:16:24;;;;;;;4.70;3.92;;;;;;;;;;6159241;28;20031;-74
2023/10/19 13:19:26;;;;;;;6.32;4.50;;;;;;;;;;6181061;28;20061;-74
2023/10/19 13:22:26;;;;;;;4.40;4.00;;;;;;;;;;6177165;28;20079;-74
2023/10/19 13:25:38;;;;;;;5.67;4.77;;;;;;;;;;6190264;28;20125;-74
2023/10/19 13:28:39;;;;;;;5.68;5.10;;;;;;;;;;6183414;28;20058;-74
2023/10/19 13:31:39;;;;;;;7.03;5.05;;;;;;;;;;6176966;28;20029;-74
2023/10/19 13:34:42;;;;;;;5.60;5.03;;;;;;;;;;6168395;28;20383;-74
2023/10/19 13:37:43;;;;;;;7.13;5.30;;;;;;;;;;6188351;28;20026;-74
2023/10/19 13:40:47;;;;;;;5.50;5.00;;;;;;;;;;6194377;28;20072;-74
2023/10/19 13:43:48;;;;;;;6.25;5.65;;;;;;;;;;6183873;28;20539;-73
2023/10/19 13:46:51;;;;;;;5.88;5.28;;;;;;;;;;6176611;28;20018;-74
2023/10/19 13:49:51;;;;;;;7.28;6.05;;;;;;;;;;6172612;28;20038;-74
2023/10/19 13:52:56;;;;;;;6.47;5.87;;;;;;;;;;6175110;28;20037;-74
2023/10/19 13:55:56;;;;;;;6.70;5.68;;;;;;;;;;6192921;28;20082;-75
2023/10/19 13:58:59;;;;;;;6.10;5.50;;;;;;;;;;6169069;28;20027;-74
2023/10/19 14:01:59;;;;;;;6.38;5.78;;;;;;;;;;6182367;28;20029;-76
2023/10/19 14:05:00;;;;;;;6.60;6.00;;;;;;;;;;6184750;28;20037;-76
2023/10/19 14:08:00;;;;;;;6.00;5.40;;;;;;;;;;6191764;28;20033;-77
2023/10/19 14:11:02;;;;;;;6.53;5.50;;;;;;;;;;6187306;28;20041;-77
2023/10/19 14:14:02;;;;;;;5.82;5.22;;;;;;;;;;6174907;28;20026;-76
2023/10/19 14:17:02;;;;;;;5.88;5.25;;;;;;;;;;6172556;28;20035;-77
2023/10/19 14:20:05;;;;;;;7.00;5.97;;;;;;;;;;6187030;28;20358;-78
2023/10/19 14:23:06;;;;;;;6.57;5.97;;;;;;;;;;6193257;28;20030;-79
2023/10/19 14:26:06;;;;;;;7.18;6.00;;;;;;;;;;6186396;28;20040;-78
2023/10/19 14:29:07;;;;;;;10.03;6.57;;;;;;;;;;6197538;28;20019;-78
2023/10/19 14:32:07;;;;;;;9.53;6.93;;;;;;;;;;6182068;28;20023;-78
2023/10/19 14:35:11;;;;;;;6.33;5.63;;;;;;;;;;6172827;28;20952;-79
2023/10/19 14:38:13;;;;;;;6.50;5.90;;;;;;;;;;6191099;28;20050;-77
2023/10/19 14:41:15;;;;;;;6.15;5.47;;;;;;;;;;6189933;28;20035;-78
2023/10/19 14:44:15;;;;;;;6.57;5.65;;;;;;;;;;6189158;28;20026;-78
2023/10/19 14:47:15;;;;;;;6.17;5.57;;;;;;;;;;6189051;28;20027;-79
2023/10/19 14:50:17;;;;;;;6.00;5.30;;;;;;;;;;6175072;28;20505;-78
2023/10/19 14:53:18;;;;;;;5.85;5.10;;;;;;;;;;6218533;28;20474;-78
2023/10/19 14:56:18;;;;;;;6.57;5.37;;;;;;;;;;6184939;28;20056;-78
2023/10/19 14:59:18;;;;;;;5.90;5.00;;;;;;;;;;6173774;28;20030;-78
2023/10/19 15:02:23;;;;;;;5.33;4.83;;;;;;;;;;6270116;28;20076;-78
2023/10/19 15:05:24;;;;;;;7.88;5.13;;;;;;;;;;6195006;28;20136;-79
2023/10/19 15:08:26;;;;;;;5.82;5.28;;;;;;;;;;6182769;28;20046;-79
2023/10/19 15:11:27;;;;;;;7.25;4.90;;;;;;;;;;6184179;28;20033;-78
2023/10/19 15:14:27;;;;;;;6.10;4.67;;;;;;;;;;6185679;28;20023;-78
2023/10/19 15:17:27;;;;;;;4.97;4.53;;;;;;;;;;6174010;28;20106;-77
2023/10/19 15:20:29;;;;;;;4.83;4.40;;;;;;;;;;6191078;28;20561;-76
2023/10/19 15:23:30;;;;;;;5.63;4.57;;;;;;;;;;6196998;28;20064;-76
2023/10/19 15:26:30;;;;;;;6.40;5.20;;;;;;;;;;6186599;28;20459;-76
2023/10/19 15:29:31;;;;;;;5.40;4.83;;;;;;;;;;6178338;28;20103;-77
2023/10/19 15:32:34;;;;;;;5.73;4.77;;;;;;;;;;6195108;28;20614;-77
2023/10/19 15:35:36;;;;;;;5.90;4.75;;;;;;;;;;6181810;28;20061;-75
2023/10/19 15:38:36;;;;;;;5.38;4.80;;;;;;;;;;6183053;28;20046;-76
2023/10/19 15:41:36;;;;;;;5.50;4.83;;;;;;;;;;6178987;28;20053;-75
2023/10/19 15:44:37;;;;;;;5.90;4.50;;;;;;;;;;6189276;28;20037;-75
2023/10/19 15:47:38;;;;;;;7.30;5.78;;;;;;;;;;6190942;28;20031;-75
2023/10/19 15:50:40;;;;;;;7.35;6.28;;;;;;;;;;6171090;28;20483;-75
2023/10/19 15:53:40;;;;;;;8.25;5.85;;;;;;;;;;6176303;28;20114;-75
2023/10/19 15:56:41;;;;;;;6.77;5.47;;;;;;;;;;6189155;28;20025;-76
2023/10/19 15:59:42;;;;;;;5.30;4.80;;;;;;;;;;6177631;28;20045;-75
2023/10/19 16:02:44;;;;;;;6.75;5.32;;;;;;;;;;6208234;28;20493;-77
2023/10/19 16:05:45;;;;;;;5.63;5.00;;;;;;;;;;6182114;28;20023;-76
2023/10/19 16:08:45;;;;;;;6.18;5.28;;;;;;;;;;6186180;28;20501;-76
2023/10/19 16:11:48;;;;;;;5.80;5.20;;;;;;;;;;6194380;28;20034;-75
2023/10/19 16:14:48;;;;;;;6.00;4.82;;;;;;;;;;6190954;28;20018;-76
2023/10/19 16:17:50;;;;;;;5.90;4.80;;;;;;;;;;6185628;28;20148;-77
2023/10/19 16:20:50;;;;;;;6.40;4.90;;;;;;;;;;6192427;28;20497;-75
2023/10/19 16:23:50;;;;;;;5.03;4.53;;;;;;;;;;6193228;28;20030;-76
2023/10/19 16:26:51;;;;;;;5.60;5.00;;;;;;;;;;6190053;28;20105;-76
2023/10/19 16:29:51;;;;;;;5.78;5.18;;;;;;;;;;6183332;28;20290;-76
2023/10/19 16:32:52;;;;;;;7.23;5.23;;;;;;;;;;6161138;28;20368;-76
2023/10/19 16:35:52;;;;;;;6.43;5.83;;;;;;;;;;6192402;28;20030;-76
2023/10/19 16:38:52;;;;;;;7.70;6.35;;;;;;;;;;6195654;28;20103;-76
2023/10/19 16:41:54;;;;;;;6.90;5.53;;;;;;;;;;6190363;28;20091;-76
2023/10/19 16:44:54;;;;;;;7.30;5.53;;;;;;;;;;6188194;28;20027;-77
2023/10/19 16:47:55;;;;;;;7.80;5.43;;;;;;;;;;6195414;28;20572;-75
2023/10/19 16:51:04;;;;;;;5.60;5.07;;;;;;;;;;6177630;28;20061;-75
2023/10/19 16:54:05;;;;;;;5.90;5.30;;;;;;;;;;6195419;28;20262;-78
2023/10/19 16:57:05;;;;;;;6.47;4.90;;;;;;;;;;6177201;28;20019;-76
2023/10/19 17:00:06;;;;;;;7.50;5.00;;;;;;;;;;6187003;28;20797;-75
2023/10/19 17:03:06;;;;;;;6.00;4.80;;;;;;;;;;6200862;28;20355;-76
2023/10/19 17:06:08;;;;;;;5.30;4.77;;;;;;;;;;6200352;28;20371;-75
2023/10/19 17:09:11;;;;;;;7.82;5.75;;;;;;;;;;6198083;28;20030;-75
2023/10/19 17:12:11;;;;;;;7.78;5.63;;;;;;;;;;6195257;28;20097;-78
2023/10/19 17:15:13;;;;;;;6.30;5.13;;;;;;;;;;6177930;28;20033;-76
2023/10/19 17:18:13;;;;;;;7.13;5.28;;;;;;;;;;6185617;28;20036;-76
2023/10/19 17:21:14;;;;;;;7.43;4.97;;;;;;;;;;6193830;28;20375;-76
2023/10/19 17:24:14;;;;;;;7.13;4.97;;;;;;;;;;6194970;28;20030;-76
2023/10/19 17:27:14;;;;;;;5.83;5.23;;;;;;;;;;6186958;28;20038;-76
2023/10/19 17:30:14;;;;;;;5.67;5.13;;;;;;;;;;6183416;28;20101;-76
2023/10/19 17:33:14;;;;;;;5.27;4.77;;;;;;;;;;6161253;28;20048;-76
2023/10/19 17:36:15;;;;;;;5.57;4.87;;;;;;;;;;6178131;28;20097;-75
2023/10/19 17:39:16;;;;;;;5.27;4.77;;;;;;;;;;6170770;28;20128;-76
2023/10/19 17:42:16;;;;;;;;;;;;;;;;;;6171680;28;20031;-77
2023/10/19 17:45:17;;;;;;;4.30;3.90;;;;;;;;;;6177843;28;19963;-73
2023/10/19 17:48:17;;;;;;;4.93;4.43;;;;;;;;;;6202313;28;20458;-75
2023/10/19 17:51:18;;;;;;;5.07;4.53;;;;;;;;;;6189618;28;20025;-73
2023/10/19 17:54:19;;;;;;;5.32;4.82;;;;;;;;;;6190499;28;20027;-74
2023/10/19 17:57:19;;;;;;;5.65;5.10;;;;;;;;;;6174339;28;20034;-74
2023/10/19 18:00:19;;;;;;;5.90;5.30;;;;;;;;;;6194452;28;20027;-73
2023/10/19 18:03:20;;;;;;;5.97;4.83;;;;;;;;;;6209543;28;20390;-74
2023/10/19 18:06:21;;;;;;;7.37;4.90;;;;;;;;;;6211080;28;20031;-73
2023/10/19 18:09:21;;;;;;;6.13;4.80;;;;;;;;;;6181780;28;20481;-73
2023/10/19 18:12:23;;;;;;;5.25;4.75;;;;;;;;;;6170845;28;20023;-74
2023/10/19 18:15:23;;;;;;;;;;;;;;;;;;6169577;28;20109;-75
2023/10/19 18:18:28;;;;;;;4.97;4.22;;;;;;;;;;6184269;28;19913;-74
2023/10/19 18:21:31;;;;;;;6.15;4.55;;;;;;;;;;6174213;28;20035;-73